sensor_id;sensor_type;location;lat;lon;timestamp;temperature;humidity
12434;DHT22;6281;49.038;8.372;2023-07-02T00:02:24;16.70;99.90
12434;DHT22;6281;49.038;8.372;2023-07-02T00:04:51;16.70;99.90
12434;DHT22;6281;49.038;8.372;2023-07-02T00:07:18;16.70;99.90
12434;DHT22;6281;49.038;8.372;2023-07-02T00:09:45;16.70;99.90
12434;DHT22;6281;49.038;8.372;2023-07-02T00:12:12;16.90;99.90
12434;DHT22;6281;49.038;8.372;2023-07-02T00:14:38;16.90;99.90
12434;DHT22;6281;49.038;8.372;2023-07-02T00:17:07;16.80;99.90
12434;DHT22;6281;49.038;8.372;2023-07-02T00:19:33;16.70;99.90
12434;DHT22;6281;49.038;8.372;2023-07-02T00:22:00;16.80;99.90
12434;DHT22;6281;49.038;8.372;2023-07-02T00:24:28;16.90;99.90
12434;DHT22;6281;49.038;8.372;2023-07-02T00:26:55;16.80;99.90
12434;DHT22;6281;49.038;8.372;2023-07-02T00:29:22;16.70;99.90
12434;DHT22;6281;49.038;8.372;2023-07-02T00:31:48;16.80;99.90
12434;DHT22;6281;49.038;8.372;2023-07-02T00:34:18;16.80;99.90
12434;DHT22;6281;49.038;8.372;2023-07-02T00:36:45;16.70;99.90
12434;DHT22;6281;49.038;8.372;2023-07-02T00:39:12;16.80;99.90
12434;DHT22;6281;49.038;8.372;2023-07-02T00:41:39;16.80;99.90
12434;DHT22;6281;49.038;8.372;2023-07-02T00:44:14;17.00;99.90
12434;DHT22;6281;49.038;8.372;2023-07-02T00:46:41;17.10;99.90
12434;DHT22;6281;49.038;8.372;2023-07-02T00:49:08;17.20;99.90
12434;DHT22;6281;49.038;8.372;2023-07-02T00:51:37;17.10;99.90
12434;DHT22;6281;49.038;8.372;2023-07-02T00:54:04;17.10;99.90
12434;DHT22;6281;49.038;8.372;2023-07-02T00:56:31;17.10;99.90
12434;DHT22;6281;49.038;8.372;2023-07-02T00:58:58;17.10;99.90
12434;DHT22;6281;49.038;8.372;2023-07-02T01:01:27;17.10;99.90
12434;DHT22;6281;49.038;8.372;2023-07-02T01:03:57;17.10;99.90
12434;DHT22;6281;49.038;8.372;2023-07-02T01:06:25;17.20;99.90
12434;DHT22;6281;49.038;8.372;2023-07-02T01:08:56;17.10;99.90
12434;DHT22;6281;49.038;8.372;2023-07-02T01:11:26;17.10;99.90
12434;DHT22;6281;49.038;8.372;2023-07-02T01:27:36;17.10;99.90
12434;DHT22;6281;49.038;8.372;2023-07-02T01:30:05;17.10;99.90
12434;DHT22;6281;49.038;8.372;2023-07-02T01:32:32;17.00;99.90
12434;DHT22;6281;49.038;8.372;2023-07-02T01:34:59;17.00;99.90
12434;DHT22;6281;49.038;8.372;2023-07-02T01:37:26;17.00;99.90
12434;DHT22;6281;49.038;8.372;2023-07-02T01:39:53;17.00;99.90
12434;DHT22;6281;49.038;8.372;2023-07-02T01:42:21;16.90;99.90
12434;DHT22;6281;49.038;8.372;2023-07-02T01:44:50;16.90;99.90
12434;DHT22;6281;49.038;8.372;2023-07-02T01:47:17;16.90;99.90
12434;DHT22;6281;49.038;8.372;2023-07-02T01:49:45;16.90;99.90
12434;DHT22;6281;49.038;8.372;2023-07-02T01:52:12;17.00;99.90
12434;DHT22;6281;49.038;8.372;2023-07-02T01:54:39;17.00;99.90
12434;DHT22;6281;49.038;8.372;2023-07-02T01:57:06;16.90;99.90
12434;DHT22;6281;49.038;8.372;2023-07-02T01:59:33;16.90;99.90
12434;DHT22;6281;49.038;8.372;2023-07-02T02:02:01;16.90;99.90
12434;DHT22;6281;49.038;8.372;2023-07-02T02:04:28;16.90;99.90
12434;DHT22;6281;49.038;8.372;2023-07-02T02:06:55;16.90;99.90
12434;DHT22;6281;49.038;8.372;2023-07-02T02:09:22;17.00;99.90
12434;DHT22;6281;49.038;8.372;2023-07-02T02:11:50;16.90;99.90
12434;DHT22;6281;49.038;8.372;2023-07-02T02:14:17;17.00;99.90
12434;DHT22;6281;49.038;8.372;2023-07-02T02:16:45;17.00;99.90
12434;DHT22;6281;49.038;8.372;2023-07-02T02:19:14;16.90;99.90
12434;DHT22;6281;49.038;8.372;2023-07-02T02:21:41;16.80;99.90
12434;DHT22;6281;49.038;8.372;2023-07-02T02:24:08;16.70;99.90
12434;DHT22;6281;49.038;8.372;2023-07-02T02:26:35;16.70;99.90
12434;DHT22;6281;49.038;8.372;2023-07-02T02:29:02;16.70;99.90
12434;DHT22;6281;49.038;8.372;2023-07-02T02:31:29;16.70;99.90
12434;DHT22;6281;49.038;8.372;2023-07-02T02:33:56;16.80;99.90
12434;DHT22;6281;49.038;8.372;2023-07-02T02:36:24;16.70;99.90
12434;DHT22;6281;49.038;8.372;2023-07-02T02:38:51;16.60;99.90
12434;DHT22;6281;49.038;8.372;2023-07-02T02:41:18;16.50;99.90
12434;DHT22;6281;49.038;8.372;2023-07-02T02:43:45;16.50;99.90
12434;DHT22;6281;49.038;8.372;2023-07-02T02:46:12;16.50;99.90
12434;DHT22;6281;49.038;8.372;2023-07-02T02:48:39;16.50;99.90
12434;DHT22;6281;49.038;8.372;2023-07-02T02:51:06;16.40;99.90
12434;DHT22;6281;49.038;8.372;2023-07-02T02:53:34;16.40;99.90
12434;DHT22;6281;49.038;8.372;2023-07-02T02:56:01;16.30;99.90
12434;DHT22;6281;49.038;8.372;2023-07-02T02:58:28;16.40;99.90
12434;DHT22;6281;49.038;8.372;2023-07-02T03:00:55;16.40;99.90
12434;DHT22;6281;49.038;8.372;2023-07-02T03:03:22;16.30;99.90
12434;DHT22;6281;49.038;8.372;2023-07-02T03:05:49;16.40;99.90
12434;DHT22;6281;49.038;8.372;2023-07-02T03:08:16;16.30;99.90
12434;DHT22;6281;49.038;8.372;2023-07-02T03:10:45;16.30;99.90
12434;DHT22;6281;49.038;8.372;2023-07-02T03:13:12;16.30;99.90
12434;DHT22;6281;49.038;8.372;2023-07-02T03:15:38;16.20;99.90
12434;DHT22;6281;49.038;8.372;2023-07-02T03:18:05;16.30;99.90
12434;DHT22;6281;49.038;8.372;2023-07-02T03:20:32;16.30;99.90
12434;DHT22;6281;49.038;8.372;2023-07-02T03:22:59;16.40;99.90
12434;DHT22;6281;49.038;8.372;2023-07-02T03:25:26;16.40;99.90
12434;DHT22;6281;49.038;8.372;2023-07-02T03:27:54;16.40;99.90
12434;DHT22;6281;49.038;8.372;2023-07-02T03:30:21;16.30;99.90
12434;DHT22;6281;49.038;8.372;2023-07-02T03:32:48;16.40;99.90
12434;DHT22;6281;49.038;8.372;2023-07-02T03:35:15;16.40;99.90
12434;DHT22;6281;49.038;8.372;2023-07-02T03:37:42;16.40;99.90
12434;DHT22;6281;49.038;8.372;2023-07-02T03:40:09;16.30;99.90
12434;DHT22;6281;49.038;8.372;2023-07-02T03:42:36;16.30;99.90
12434;DHT22;6281;49.038;8.372;2023-07-02T03:45:05;16.40;99.90
12434;DHT22;6281;49.038;8.372;2023-07-02T03:47:32;16.30;99.90
12434;DHT22;6281;49.038;8.372;2023-07-02T03:49:59;16.20;99.90
12434;DHT22;6281;49.038;8.372;2023-07-02T03:52:26;16.30;99.90
12434;DHT22;6281;49.038;8.372;2023-07-02T03:54:53;16.30;99.90
12434;DHT22;6281;49.038;8.372;2023-07-02T03:57:20;16.10;99.90
12434;DHT22;6281;49.038;8.372;2023-07-02T03:59:47;16.20;99.90
12434;DHT22;6281;49.038;8.372;2023-07-02T04:02:15;16.10;99.90
12434;DHT22;6281;49.038;8.372;2023-07-02T04:04:42;16.20;99.90
12434;DHT22;6281;49.038;8.372;2023-07-02T04:07:09;16.20;99.90
12434;DHT22;6281;49.038;8.372;2023-07-02T04:09:36;16.20;99.90
12434;DHT22;6281;49.038;8.372;2023-07-02T04:12:04;16.10;99.90
12434;DHT22;6281;49.038;8.372;2023-07-02T04:14:31;16.10;99.90
12434;DHT22;6281;49.038;8.372;2023-07-02T04:16:58;16.20;99.90
12434;DHT22;6281;49.038;8.372;2023-07-02T04:19:26;16.20;99.90
12434;DHT22;6281;49.038;8.372;2023-07-02T04:21:53;16.10;99.90
12434;DHT22;6281;49.038;8.372;2023-07-02T04:24:20;16.20;99.90
12434;DHT22;6281;49.038;8.372;2023-07-02T04:26:47;16.20;99.90
12434;DHT22;6281;49.038;8.372;2023-07-02T04:29:14;16.20;99.90
12434;DHT22;6281;49.038;8.372;2023-07-02T04:31:41;16.30;99.90
12434;DHT22;6281;49.038;8.372;2023-07-02T04:34:08;16.30;99.90
12434;DHT22;6281;49.038;8.372;2023-07-02T04:36:52;16.30;99.90
12434;DHT22;6281;49.038;8.372;2023-07-02T04:39:19;16.20;99.90
12434;DHT22;6281;49.038;8.372;2023-07-02T04:41:46;16.20;99.90
12434;DHT22;6281;49.038;8.372;2023-07-02T04:44:14;16.20;99.90
12434;DHT22;6281;49.038;8.372;2023-07-02T04:46:41;16.30;99.90
12434;DHT22;6281;49.038;8.372;2023-07-02T04:49:08;16.20;99.90
12434;DHT22;6281;49.038;8.372;2023-07-02T04:51:35;16.20;99.90
12434;DHT22;6281;49.038;8.372;2023-07-02T04:54:03;16.20;99.90
12434;DHT22;6281;49.038;8.372;2023-07-02T04:56:30;16.40;99.90
12434;DHT22;6281;49.038;8.372;2023-07-02T04:58:57;16.50;99.90
12434;DHT22;6281;49.038;8.372;2023-07-02T05:01:24;16.50;99.90
12434;DHT22;6281;49.038;8.372;2023-07-02T05:03:51;16.50;99.90
12434;DHT22;6281;49.038;8.372;2023-07-02T05:06:18;16.50;99.90
12434;DHT22;6281;49.038;8.372;2023-07-02T05:08:44;16.40;99.90
12434;DHT22;6281;49.038;8.372;2023-07-02T05:11:13;16.50;99.90
12434;DHT22;6281;49.038;8.372;2023-07-02T05:13:40;16.50;99.90
12434;DHT22;6281;49.038;8.372;2023-07-02T05:16:07;16.50;99.90
12434;DHT22;6281;49.038;8.372;2023-07-02T05:18:34;16.60;99.90
12434;DHT22;6281;49.038;8.372;2023-07-02T05:21:00;16.60;99.90
12434;DHT22;6281;49.038;8.372;2023-07-02T05:23:27;16.50;99.90
12434;DHT22;6281;49.038;8.372;2023-07-02T05:25:54;16.60;99.90
12434;DHT22;6281;49.038;8.372;2023-07-02T05:28:23;16.60;99.90
12434;DHT22;6281;49.038;8.372;2023-07-02T05:30:50;16.50;99.90
12434;DHT22;6281;49.038;8.372;2023-07-02T05:33:17;16.70;99.90
12434;DHT22;6281;49.038;8.372;2023-07-02T05:36:21;16.60;99.90
12434;DHT22;6281;49.038;8.372;2023-07-02T05:38:48;16.60;99.90
12434;DHT22;6281;49.038;8.372;2023-07-02T05:41:18;16.70;99.90
12434;DHT22;6281;49.038;8.372;2023-07-02T05:43:47;16.80;99.90
12434;DHT22;6281;49.038;8.372;2023-07-02T05:46:14;16.70;99.90
12434;DHT22;6281;49.038;8.372;2023-07-02T05:48:41;16.80;99.90
12434;DHT22;6281;49.038;8.372;2023-07-02T05:51:08;16.80;99.90
12434;DHT22;6281;49.038;8.372;2023-07-02T05:53:37;16.70;99.90
12434;DHT22;6281;49.038;8.372;2023-07-02T05:56:04;16.70;99.90
12434;DHT22;6281;49.038;8.372;2023-07-02T05:58:31;16.80;99.90
12434;DHT22;6281;49.038;8.372;2023-07-02T06:00:59;16.80;99.90
12434;DHT22;6281;49.038;8.372;2023-07-02T06:03:26;16.80;99.90
12434;DHT22;6281;49.038;8.372;2023-07-02T06:05:53;16.90;99.90
12434;DHT22;6281;49.038;8.372;2023-07-02T06:08:20;16.90;99.90
12434;DHT22;6281;49.038;8.372;2023-07-02T06:10:48;16.90;99.90
12434;DHT22;6281;49.038;8.372;2023-07-02T06:13:15;17.10;99.90
12434;DHT22;6281;49.038;8.372;2023-07-02T06:15:42;17.10;99.90
12434;DHT22;6281;49.038;8.372;2023-07-02T06:18:10;17.10;99.90
12434;DHT22;6281;49.038;8.372;2023-07-02T06:20:37;17.20;99.90
12434;DHT22;6281;49.038;8.372;2023-07-02T06:23:04;17.30;99.90
12434;DHT22;6281;49.038;8.372;2023-07-02T06:25:31;17.30;99.90
12434;DHT22;6281;49.038;8.372;2023-07-02T06:27:59;17.30;99.90
12434;DHT22;6281;49.038;8.372;2023-07-02T06:30:26;17.40;99.90
12434;DHT22;6281;49.038;8.372;2023-07-02T06:32:53;17.40;99.90
12434;DHT22;6281;49.038;8.372;2023-07-02T06:35:22;17.50;99.90
12434;DHT22;6281;49.038;8.372;2023-07-02T06:37:51;17.70;99.90
12434;DHT22;6281;49.038;8.372;2023-07-02T06:40:18;17.70;99.90
12434;DHT22;6281;49.038;8.372;2023-07-02T06:42:45;17.60;99.90
12434;DHT22;6281;49.038;8.372;2023-07-02T06:45:11;17.70;99.90
12434;DHT22;6281;49.038;8.372;2023-07-02T06:47:38;17.70;99.90
12434;DHT22;6281;49.038;8.372;2023-07-02T06:50:06;17.70;99.90
12434;DHT22;6281;49.038;8.372;2023-07-02T06:52:34;17.80;99.90
12434;DHT22;6281;49.038;8.372;2023-07-02T06:55:03;17.80;99.90
12434;DHT22;6281;49.038;8.372;2023-07-02T06:57:30;17.70;99.90
12434;DHT22;6281;49.038;8.372;2023-07-02T06:59:58;17.90;99.90
12434;DHT22;6281;49.038;8.372;2023-07-02T07:02:26;18.00;99.90
12434;DHT22;6281;49.038;8.372;2023-07-02T07:04:53;18.10;99.90
12434;DHT22;6281;49.038;8.372;2023-07-02T07:07:20;18.20;99.90
12434;DHT22;6281;49.038;8.372;2023-07-02T07:09:48;17.90;99.90
12434;DHT22;6281;49.038;8.372;2023-07-02T07:12:15;17.80;99.90
12434;DHT22;6281;49.038;8.372;2023-07-02T07:14:42;17.90;99.90
12434;DHT22;6281;49.038;8.372;2023-07-02T07:17:09;17.90;99.90
12434;DHT22;6281;49.038;8.372;2023-07-02T07:19:36;18.10;99.90
12434;DHT22;6281;49.038;8.372;2023-07-02T07:22:03;18.30;99.90
12434;DHT22;6281;49.038;8.372;2023-07-02T07:24:30;18.20;99.90
12434;DHT22;6281;49.038;8.372;2023-07-02T07:30:14;18.00;99.90
12434;DHT22;6281;49.038;8.372;2023-07-02T07:32:41;18.00;99.90
12434;DHT22;6281;49.038;8.372;2023-07-02T07:35:08;18.20;99.90
12434;DHT22;6281;49.038;8.372;2023-07-02T07:37:42;18.20;99.90
12434;DHT22;6281;49.038;8.372;2023-07-02T07:40:10;18.20;99.90
12434;DHT22;6281;49.038;8.372;2023-07-02T07:42:37;18.40;99.90
12434;DHT22;6281;49.038;8.372;2023-07-02T07:45:04;18.50;99.90
12434;DHT22;6281;49.038;8.372;2023-07-02T07:47:33;18.40;99.90
12434;DHT22;6281;49.038;8.372;2023-07-02T07:49:59;18.50;99.90
12434;DHT22;6281;49.038;8.372;2023-07-02T07:52:26;18.40;99.90
12434;DHT22;6281;49.038;8.372;2023-07-02T07:54:53;18.40;99.90
12434;DHT22;6281;49.038;8.372;2023-07-02T07:57:20;18.70;99.90
12434;DHT22;6281;49.038;8.372;2023-07-02T07:59:47;18.90;99.90
12434;DHT22;6281;49.038;8.372;2023-07-02T08:02:13;18.80;99.90
12434;DHT22;6281;49.038;8.372;2023-07-02T08:04:42;18.80;99.90
12434;DHT22;6281;49.038;8.372;2023-07-02T08:07:08;18.70;99.90
12434;DHT22;6281;49.038;8.372;2023-07-02T08:09:35;19.00;99.90
12434;DHT22;6281;49.038;8.372;2023-07-02T08:12:02;19.20;99.90
12434;DHT22;6281;49.038;8.372;2023-07-02T08:14:29;19.10;99.90
12434;DHT22;6281;49.038;8.372;2023-07-02T08:16:56;19.00;99.90
12434;DHT22;6281;49.038;8.372;2023-07-02T08:19:23;19.20;99.90
12434;DHT22;6281;49.038;8.372;2023-07-02T08:21:51;19.20;99.90
12434;DHT22;6281;49.038;8.372;2023-07-02T08:24:18;19.10;99.90
12434;DHT22;6281;49.038;8.372;2023-07-02T08:26:45;19.20;99.90
12434;DHT22;6281;49.038;8.372;2023-07-02T08:29:13;19.30;99.90
12434;DHT22;6281;49.038;8.372;2023-07-02T08:31:40;19.40;99.90
12434;DHT22;6281;49.038;8.372;2023-07-02T08:34:08;19.50;99.90
12434;DHT22;6281;49.038;8.372;2023-07-02T08:36:35;19.80;99.90
12434;DHT22;6281;49.038;8.372;2023-07-02T08:39:04;20.00;99.90
12434;DHT22;6281;49.038;8.372;2023-07-02T08:41:30;19.90;99.90
12434;DHT22;6281;49.038;8.372;2023-07-02T08:44:09;20.00;99.90
12434;DHT22;6281;49.038;8.372;2023-07-02T08:46:36;19.60;99.90
12434;DHT22;6281;49.038;8.372;2023-07-02T08:49:03;19.80;99.90
12434;DHT22;6281;49.038;8.372;2023-07-02T08:51:30;19.60;99.90
12434;DHT22;6281;49.038;8.372;2023-07-02T08:53:57;19.50;99.90
12434;DHT22;6281;49.038;8.372;2023-07-02T08:56:26;19.60;99.90
12434;DHT22;6281;49.038;8.372;2023-07-02T08:58:53;19.80;99.90
12434;DHT22;6281;49.038;8.372;2023-07-02T09:01:20;20.10;99.90
12434;DHT22;6281;49.038;8.372;2023-07-02T09:03:49;19.70;99.90
12434;DHT22;6281;49.038;8.372;2023-07-02T09:06:18;19.80;99.90
12434;DHT22;6281;49.038;8.372;2023-07-02T09:08:45;20.40;99.90
12434;DHT22;6281;49.038;8.372;2023-07-02T09:11:13;20.40;99.90
12434;DHT22;6281;49.038;8.372;2023-07-02T09:13:45;20.40;99.90
12434;DHT22;6281;49.038;8.372;2023-07-02T09:16:22;20.50;99.90
12434;DHT22;6281;49.038;8.372;2023-07-02T09:18:59;20.50;99.90
12434;DHT22;6281;49.038;8.372;2023-07-02T09:21:26;20.40;99.90
12434;DHT22;6281;49.038;8.372;2023-07-02T09:23:54;20.40;99.90
12434;DHT22;6281;49.038;8.372;2023-07-02T09:26:21;20.60;99.90
12434;DHT22;6281;49.038;8.372;2023-07-02T09:28:50;20.80;99.90
12434;DHT22;6281;49.038;8.372;2023-07-02T09:31:17;20.60;99.90
12434;DHT22;6281;49.038;8.372;2023-07-02T09:33:44;20.70;99.90
12434;DHT22;6281;49.038;8.372;2023-07-02T09:36:11;20.80;99.90
12434;DHT22;6281;49.038;8.372;2023-07-02T09:38:39;20.80;99.90
12434;DHT22;6281;49.038;8.372;2023-07-02T09:41:07;21.00;99.90
12434;DHT22;6281;49.038;8.372;2023-07-02T09:43:34;21.30;99.90
12434;DHT22;6281;49.038;8.372;2023-07-02T09:46:03;21.50;99.90
12434;DHT22;6281;49.038;8.372;2023-07-02T09:48:34;21.50;99.90
12434;DHT22;6281;49.038;8.372;2023-07-02T09:51:02;21.40;99.90
12434;DHT22;6281;49.038;8.372;2023-07-02T09:53:30;21.40;99.90
12434;DHT22;6281;49.038;8.372;2023-07-02T09:55:57;21.30;99.90
12434;DHT22;6281;49.038;8.372;2023-07-02T09:58:24;21.70;99.90
12434;DHT22;6281;49.038;8.372;2023-07-02T10:00:51;21.60;99.90
12434;DHT22;6281;49.038;8.372;2023-07-02T10:03:29;21.30;99.90
12434;DHT22;6281;49.038;8.372;2023-07-02T10:06:03;21.60;99.90
12434;DHT22;6281;49.038;8.372;2023-07-02T10:08:31;21.70;99.90
12434;DHT22;6281;49.038;8.372;2023-07-02T10:11:09;21.70;99.90
12434;DHT22;6281;49.038;8.372;2023-07-02T10:13:37;22.00;99.90
12434;DHT22;6281;49.038;8.372;2023-07-02T10:16:05;22.20;99.90
12434;DHT22;6281;49.038;8.372;2023-07-02T10:18:34;22.00;99.90
12434;DHT22;6281;49.038;8.372;2023-07-02T10:21:13;21.50;99.90
12434;DHT22;6281;49.038;8.372;2023-07-02T10:23:40;21.20;99.90
12434;DHT22;6281;49.038;8.372;2023-07-02T10:26:10;21.00;99.90
12434;DHT22;6281;49.038;8.372;2023-07-02T10:28:37;20.70;99.90
12434;DHT22;6281;49.038;8.372;2023-07-02T10:31:04;22.40;99.90
12434;DHT22;6281;49.038;8.372;2023-07-02T10:33:31;23.40;99.90
12434;DHT22;6281;49.038;8.372;2023-07-02T10:35:59;23.60;99.90
12434;DHT22;6281;49.038;8.372;2023-07-02T10:38:26;25.00;99.90
12434;DHT22;6281;49.038;8.372;2023-07-02T10:40:57;24.60;99.90
12434;DHT22;6281;49.038;8.372;2023-07-02T10:43:25;25.20;99.90
12434;DHT22;6281;49.038;8.372;2023-07-02T10:45:53;25.10;99.90
12434;DHT22;6281;49.038;8.372;2023-07-02T10:48:20;24.30;99.90
12434;DHT22;6281;49.038;8.372;2023-07-02T10:50:47;24.50;99.90
12434;DHT22;6281;49.038;8.372;2023-07-02T10:53:19;24.10;99.90
12434;DHT22;6281;49.038;8.372;2023-07-02T10:55:54;22.80;99.90
12434;DHT22;6281;49.038;8.372;2023-07-02T10:58:21;22.60;99.90
12434;DHT22;6281;49.038;8.372;2023-07-02T11:00:49;24.10;99.90
12434;DHT22;6281;49.038;8.372;2023-07-02T11:03:17;22.70;99.90
12434;DHT22;6281;49.038;8.372;2023-07-02T11:05:45;22.40;99.90
12434;DHT22;6281;49.038;8.372;2023-07-02T11:08:12;22.20;99.90
12434;DHT22;6281;49.038;8.372;2023-07-02T11:10:41;21.80;99.90
12434;DHT22;6281;49.038;8.372;2023-07-02T11:13:11;22.60;99.90
12434;DHT22;6281;49.038;8.372;2023-07-02T11:15:38;23.70;99.90
12434;DHT22;6281;49.038;8.372;2023-07-02T11:18:10;23.40;99.90
12434;DHT22;6281;49.038;8.372;2023-07-02T11:20:38;23.90;99.90
12434;DHT22;6281;49.038;8.372;2023-07-02T11:23:16;24.20;99.90
12434;DHT22;6281;49.038;8.372;2023-07-02T11:25:56;23.80;99.90
12434;DHT22;6281;49.038;8.372;2023-07-02T11:28:24;23.90;99.90
12434;DHT22;6281;49.038;8.372;2023-07-02T11:30:51;23.70;99.90
12434;DHT22;6281;49.038;8.372;2023-07-02T11:33:17;23.90;99.90
12434;DHT22;6281;49.038;8.372;2023-07-02T11:35:44;24.70;99.90
12434;DHT22;6281;49.038;8.372;2023-07-02T11:38:11;25.80;99.90
12434;DHT22;6281;49.038;8.372;2023-07-02T11:40:41;25.30;99.90
12434;DHT22;6281;49.038;8.372;2023-07-02T11:43:09;25.50;99.90
12434;DHT22;6281;49.038;8.372;2023-07-02T11:45:36;25.70;99.00
12434;DHT22;6281;49.038;8.372;2023-07-02T11:48:03;25.10;99.90
12434;DHT22;6281;49.038;8.372;2023-07-02T11:50:30;26.00;97.20
12434;DHT22;6281;49.038;8.372;2023-07-02T11:52:56;25.30;94.70
12434;DHT22;6281;49.038;8.372;2023-07-02T11:55:23;24.90;98.20
12434;DHT22;6281;49.038;8.372;2023-07-02T11:57:50;25.10;99.90
12434;DHT22;6281;49.038;8.372;2023-07-02T12:00:19;24.10;99.90
12434;DHT22;6281;49.038;8.372;2023-07-02T12:02:46;24.60;96.80
12434;DHT22;6281;49.038;8.372;2023-07-02T12:05:13;24.20;99.90
12434;DHT22;6281;49.038;8.372;2023-07-02T12:07:40;24.90;96.10
12434;DHT22;6281;49.038;8.372;2023-07-02T12:10:07;25.70;93.70
12434;DHT22;6281;49.038;8.372;2023-07-02T12:12:34;26.20;90.90
12434;DHT22;6281;49.038;8.372;2023-07-02T12:15:04;26.20;93.00
12434;DHT22;6281;49.038;8.372;2023-07-02T12:17:33;25.80;90.40
12434;DHT22;6281;49.038;8.372;2023-07-02T12:20:00;25.40;88.00
12434;DHT22;6281;49.038;8.372;2023-07-02T12:22:27;24.30;84.60
12434;DHT22;6281;49.038;8.372;2023-07-02T12:24:54;24.10;89.50
12434;DHT22;6281;49.038;8.372;2023-07-02T12:27:22;24.00;91.40
12434;DHT22;6281;49.038;8.372;2023-07-02T12:29:50;24.40;93.20
12434;DHT22;6281;49.038;8.372;2023-07-02T12:32:17;23.80;97.90
12434;DHT22;6281;49.038;8.372;2023-07-02T12:34:46;23.90;96.70
12434;DHT22;6281;49.038;8.372;2023-07-02T12:37:12;23.80;96.40
12434;DHT22;6281;49.038;8.372;2023-07-02T12:39:43;24.10;93.90
12434;DHT22;6281;49.038;8.372;2023-07-02T12:42:10;24.30;96.10
12434;DHT22;6281;49.038;8.372;2023-07-02T12:44:37;24.20;96.00
12434;DHT22;6281;49.038;8.372;2023-07-02T12:47:04;25.30;94.20
12434;DHT22;6281;49.038;8.372;2023-07-02T12:49:31;25.00;91.20
12434;DHT22;6281;49.038;8.372;2023-07-02T12:51:59;25.10;87.40
12434;DHT22;6281;49.038;8.372;2023-07-02T12:54:26;26.10;92.30
12434;DHT22;6281;49.038;8.372;2023-07-02T12:56:53;26.10;86.10
12434;DHT22;6281;49.038;8.372;2023-07-02T12:59:20;26.20;77.80
12434;DHT22;6281;49.038;8.372;2023-07-02T13:01:47;25.50;87.00
12434;DHT22;6281;49.038;8.372;2023-07-02T13:04:14;27.10;86.50
12434;DHT22;6281;49.038;8.372;2023-07-02T13:06:41;27.00;76.10
12434;DHT22;6281;49.038;8.372;2023-07-02T13:09:11;26.40;70.30
12434;DHT22;6281;49.038;8.372;2023-07-02T13:11:38;26.20;67.70
12434;DHT22;6281;49.038;8.372;2023-07-02T13:14:05;26.50;66.60
12434;DHT22;6281;49.038;8.372;2023-07-02T13:16:33;25.80;68.90
12434;DHT22;6281;49.038;8.372;2023-07-02T13:19:00;27.00;68.00
12434;DHT22;6281;49.038;8.372;2023-07-02T13:21:27;26.10;66.40
12434;DHT22;6281;49.038;8.372;2023-07-02T13:23:54;26.20;65.30
12434;DHT22;6281;49.038;8.372;2023-07-02T13:26:23;27.10;63.30
12434;DHT22;6281;49.038;8.372;2023-07-02T13:28:49;26.90;61.90
12434;DHT22;6281;49.038;8.372;2023-07-02T13:31:17;26.30;59.20
12434;DHT22;6281;49.038;8.372;2023-07-02T13:33:44;26.60;57.90
12434;DHT22;6281;49.038;8.372;2023-07-02T13:36:11;27.20;62.30
12434;DHT22;6281;49.038;8.372;2023-07-02T13:38:44;27.10;58.70
12434;DHT22;6281;49.038;8.372;2023-07-02T13:41:11;27.50;55.40
12434;DHT22;6281;49.038;8.372;2023-07-02T13:43:40;26.60;58.80
12434;DHT22;6281;49.038;8.372;2023-07-02T13:46:07;26.40;58.70
12434;DHT22;6281;49.038;8.372;2023-07-02T13:48:34;26.40;59.40
12434;DHT22;6281;49.038;8.372;2023-07-02T13:51:01;26.10;57.30
12434;DHT22;6281;49.038;8.372;2023-07-02T13:53:34;26.70;56.60
12434;DHT22;6281;49.038;8.372;2023-07-02T13:56:01;26.40;56.10
12434;DHT22;6281;49.038;8.372;2023-07-02T13:58:58;26.60;57.30
12434;DHT22;6281;49.038;8.372;2023-07-02T14:01:25;26.20;57.20
12434;DHT22;6281;49.038;8.372;2023-07-02T14:03:52;26.60;56.40
12434;DHT22;6281;49.038;8.372;2023-07-02T14:06:19;27.00;55.90
12434;DHT22;6281;49.038;8.372;2023-07-02T14:08:47;27.10;55.90
12434;DHT22;6281;49.038;8.372;2023-07-02T14:11:14;26.60;57.90
12434;DHT22;6281;49.038;8.372;2023-07-02T14:13:40;26.20;55.60
12434;DHT22;6281;49.038;8.372;2023-07-02T14:16:09;26.90;56.10
12434;DHT22;6281;49.038;8.372;2023-07-02T14:18:36;26.50;55.60
12434;DHT22;6281;49.038;8.372;2023-07-02T14:21:03;27.30;54.50
12434;DHT22;6281;49.038;8.372;2023-07-02T14:23:30;26.60;55.80
12434;DHT22;6281;49.038;8.372;2023-07-02T14:25:56;26.60;54.70
12434;DHT22;6281;49.038;8.372;2023-07-02T14:28:24;26.50;53.80
12434;DHT22;6281;49.038;8.372;2023-07-02T14:30:58;27.30;54.40
12434;DHT22;6281;49.038;8.372;2023-07-02T14:33:28;27.50;57.10
12434;DHT22;6281;49.038;8.372;2023-07-02T14:35:56;27.30;53.80
12434;DHT22;6281;49.038;8.372;2023-07-02T14:38:23;27.30;53.10
12434;DHT22;6281;49.038;8.372;2023-07-02T14:40:51;27.10;53.60
12434;DHT22;6281;49.038;8.372;2023-07-02T14:43:20;26.80;52.10
12434;DHT22;6281;49.038;8.372;2023-07-02T14:45:48;27.10;51.60
12434;DHT22;6281;49.038;8.372;2023-07-02T14:48:15;26.50;52.60
12434;DHT22;6281;49.038;8.372;2023-07-02T14:50:45;26.80;53.00
12434;DHT22;6281;49.038;8.372;2023-07-02T14:53:25;26.70;54.10
12434;DHT22;6281;49.038;8.372;2023-07-02T14:55:54;26.20;53.40
12434;DHT22;6281;49.038;8.372;2023-07-02T14:58:22;26.50;53.80
12434;DHT22;6281;49.038;8.372;2023-07-02T15:00:50;26.10;53.60
12434;DHT22;6281;49.038;8.372;2023-07-02T15:03:18;26.80;52.80
12434;DHT22;6281;49.038;8.372;2023-07-02T15:05:49;26.90;51.40
12434;DHT22;6281;49.038;8.372;2023-07-02T15:08:17;26.70;51.40
12434;DHT22;6281;49.038;8.372;2023-07-02T15:10:46;26.40;52.50
12434;DHT22;6281;49.038;8.372;2023-07-02T15:13:14;26.40;53.40
12434;DHT22;6281;49.038;8.372;2023-07-02T15:15:42;26.70;52.20
12434;DHT22;6281;49.038;8.372;2023-07-02T15:18:10;26.30;52.80
12434;DHT22;6281;49.038;8.372;2023-07-02T15:20:37;27.20;53.20
12434;DHT22;6281;49.038;8.372;2023-07-02T15:23:06;26.30;51.10
12434;DHT22;6281;49.038;8.372;2023-07-02T15:25:33;26.50;50.90
12434;DHT22;6281;49.038;8.372;2023-07-02T15:28:00;26.10;51.70
12434;DHT22;6281;49.038;8.372;2023-07-02T15:30:27;26.70;50.50
12434;DHT22;6281;49.038;8.372;2023-07-02T15:32:55;26.50;50.90
12434;DHT22;6281;49.038;8.372;2023-07-02T15:35:22;27.00;50.00
12434;DHT22;6281;49.038;8.372;2023-07-02T15:37:49;26.50;51.60
12434;DHT22;6281;49.038;8.372;2023-07-02T15:40:17;26.70;50.60
12434;DHT22;6281;49.038;8.372;2023-07-02T15:42:44;26.00;51.10
12434;DHT22;6281;49.038;8.372;2023-07-02T15:45:11;26.10;52.70
12434;DHT22;6281;49.038;8.372;2023-07-02T15:47:38;26.40;52.10
12434;DHT22;6281;49.038;8.372;2023-07-02T15:50:06;27.00;52.20
12434;DHT22;6281;49.038;8.372;2023-07-02T15:52:33;27.50;50.00
12434;DHT22;6281;49.038;8.372;2023-07-02T15:54:59;27.00;54.30
12434;DHT22;6281;49.038;8.372;2023-07-02T15:57:28;27.90;51.40
12434;DHT22;6281;49.038;8.372;2023-07-02T15:59:55;27.10;49.40
12434;DHT22;6281;49.038;8.372;2023-07-02T16:02:22;26.90;48.20
12434;DHT22;6281;49.038;8.372;2023-07-02T16:04:49;27.20;49.00
12434;DHT22;6281;49.038;8.372;2023-07-02T16:07:16;27.80;50.80